Time;durP1;ratioP1;P1;durP2;ratioP2;P2;SDS_P1;SDS_P2;PMS_P1;PMS_P2;Temp;Humidity;BMP_temperature;BMP_pressure;BME280_temperature;BME280_humidity;BME280_pressure;Samples;Min_cycle;Max_cycle;Signal;HPM_P1;HPM_P2
2019/11/29 16:06:16;;;;;;;73.8;48.3;;;;;;;22.58;39.77637;984.7907;;;;
2019/11/29 16:09:35;;;;;;;115.2;62.2;;;;;;;22.73;39.53711;984.8969;;;;
2019/11/29 16:12:00;;;;;;;111.1;62;;;;;;;22.72;39.48242;984.9556;;;;
2019/11/29 16:14:25;;;;;;;112.1;61.1;;;;;;;22.69;39.61719;984.9835;;;;
2019/11/29 16:16:50;;;;;;;105.7;61.4;;;;;;;22.67;39.29785;985.0201;;;;
2019/11/29 16:19:16;;;;;;;105.7;59.5;;;;;;;22.67;39.37207;985.048;;;;
2019/11/29 16:21:41;;;;;;;91.4;58.4;;;;;;;22.72;39.66211;985.134;;;;
2019/11/29 16:24:06;;;;;;;94.1;58.2;;;;;;;22.76;39.4541;985.1761;;;;
2019/11/29 16:26:31;;;;;;;98.2;58.1;;;;;;;22.76;39.37988;985.2503;;;;
2019/11/29 16:28:57;;;;;;;94.7;58.4;;;;;;;22.78;39.56152;985.2598;;;;
2019/11/29 16:31:22;;;;;;;89.9;57.4;;;;;;;22.79;39.47754;985.2762;;;;
2019/11/29 16:33:47;;;;;;;87.1;56.2;;;;;;;22.76;38.92383;985.2893;;;;
2019/11/29 16:36:12;;;;;;;91.5;56.3;;;;;;;22.81;39.16113;985.3522;;;;
2019/11/29 16:40:13;;;;;;;108.8;59.4;;;;;;;23.3;38.22852;985.2936;;;;
2019/11/29 16:42:38;;;;;;;92;57.3;;;;;;;23.31;38.16602;985.385;;;;
2019/11/29 16:45:03;;;;;;;85.5;55.5;;;;;;;23.29;37.73926;985.4722;;;;
2019/11/29 16:47:28;;;;;;;81.7;55.3;;;;;;;23.26;37.85352;985.5062;;;;
2019/11/29 16:49:53;;;;;;;82.3;55.2;;;;;;;23.25;37.88477;985.5324;;;;
2019/11/29 16:52:18;;;;;;;78;54.4;;;;;;;23.26;37.7793;985.572;;;;
2019/11/29 16:54:43;;;;;;;74.7;54.2;;;;;;;23.23;37.85156;985.6381;;;;
2019/11/29 16:57:08;;;;;;;74.7;53.7;;;;;;;23.25;37.68359;985.7026;;;;
2019/11/29 16:59:33;;;;;;;73.2;53.6;;;;;;;23.27;37.5791;985.7556;;;;
2019/11/29 17:01:59;;;;;;;73.9;54.4;;;;;;;23.24;37.63965;985.7685;;;;
2019/11/29 17:04:24;;;;;;;69.3;53.2;;;;;;;23.22;37.65918;985.7952;;;;
2019/11/29 17:06:49;;;;;;;72.1;53.5;;;;;;;23.24;37.53418;985.8688;;;;
2019/11/29 17:09:14;;;;;;;69.4;53;;;;;;;23.21;37.50977;985.9249;;;;
2019/11/29 17:11:39;;;;;;;70.5;52.9;;;;;;;23.25;37.4707;985.9739;;;;
2019/11/29 17:14:04;;;;;;;68.7;53.3;;;;;;;23.19;37.62402;986.0332;;;;
2019/11/29 17:16:29;;;;;;;69.3;52.7;;;;;;;22.99;37.91504;986.0136;;;;
2019/11/29 17:18:54;;;;;;;67.2;52.5;;;;;;;23.04;38.00488;986.0967;;;;
2019/11/29 17:21:19;;;;;;;68;52.3;;;;;;;23.15;37.75879;986.139;;;;
2019/11/29 17:23:44;;;;;;;68.1;52.2;;;;;;;23.11;37.84082;986.1434;;;;
2019/11/29 17:26:56;;;;;;;69.8;53.1;;;;;;;23.07;38.17676;986.1364;;;;
2019/11/29 17:28:35;;;;;;;67.6;52.2;;;;;;;23.09;38.51758;986.2137;;;;
2019/11/29 17:31:00;;;;;;;68.3;52.6;;;;;;;23.07;39.01465;986.2709;;;;
2019/11/29 17:33:25;;;;;;;70.1;52.7;;;;;;;23.12;38.49902;986.2891;;;;
2019/11/29 17:35:50;;;;;;;69.5;53.1;;;;;;;23.15;39.15918;986.3183;;;;
2019/11/29 17:38:15;;;;;;;67.5;52.6;;;;;;;23.11;39.08105;986.3845;;;;
2019/11/29 17:40:40;;;;;;;66.7;52.4;;;;;;;23.16;38.85352;986.4192;;;;
2019/11/29 17:43:06;;;;;;;64.2;51.7;;;;;;;23.18;38.98242;986.4027;;;;
2019/11/29 17:45:33;;;;;;;64.5;51.8;;;;;;;23.17;38.94922;986.4246;;;;
2019/11/29 17:47:56;;;;;;;68.6;52.2;;;;;;;23.22;38.58301;986.4835;;;;
2019/11/29 17:50:21;;;;;;;65.3;51.9;;;;;;;23.22;38.6875;986.5047;;;;
2019/11/29 17:52:46;;;;;;;64.7;51.2;;;;;;;23.18;38.65234;986.5046;;;;
2019/11/29 17:55:11;;;;;;;66.7;52.1;;;;;;;23.21;38.76172;986.5036;;;;
2019/11/29 17:57:36;;;;;;;65.8;52.1;;;;;;;23.13;38.80762;986.5641;;;;
2019/11/29 18:00:02;;;;;;;65.4;52.2;;;;;;;23.09;38.98438;986.6067;;;;
2019/11/29 18:02:27;;;;;;;65.1;51.5;;;;;;;23.18;38.60059;986.6129;;;;
2019/11/29 18:04:52;;;;;;;64.7;52.2;;;;;;;23.15;38.66113;986.663;;;;
2019/11/29 18:07:17;;;;;;;64.5;51.7;;;;;;;23.19;38.79102;986.7756;;;;
2019/11/29 18:09:42;;;;;;;64.9;51.8;;;;;;;23.35;38.37109;986.8245;;;;
2019/11/29 18:12:08;;;;;;;65.9;51.4;;;;;;;23.32;38.6748;986.8279;;;;
2019/11/29 18:14:33;;;;;;;63.4;51.5;;;;;;;23.23;38.59375;986.8588;;;;
2019/11/29 18:16:58;;;;;;;65.6;51.4;;;;;;;23.24;38.81641;986.8547;;;;
2019/11/29 18:19:23;;;;;;;64.3;51.4;;;;;;;23.28;38.81055;986.9187;;;;
2019/11/29 18:21:48;;;;;;;63.3;51.1;;;;;;;23.28;39.05469;986.9641;;;;
2019/11/29 18:24:14;;;;;;;63;51.4;;;;;;;23.28;39.41406;986.9903;;;;
2019/11/29 18:26:39;;;;;;;64.5;52;;;;;;;23.26;39.31836;987.0125;;;;
2019/11/29 18:29:04;;;;;;;69.5;51.5;;;;;;;23.36;39.125;986.9877;;;;
2019/11/29 18:31:29;;;;;;;63.7;50.9;;;;;;;23.4;38.8623;986.9988;;;;
2019/11/29 18:33:55;;;;;;;65;51.6;;;;;;;23.41;38.82129;987.0062;;;;
2019/11/29 18:36:20;;;;;;;246.8;92;;;;;;;23.34;39.05957;987.051;;;;
2019/11/29 18:38:45;;;;;;;144.3;61.7;;;;;;;23.33;39.3457;987.0519;;;;
2019/11/29 18:41:11;;;;;;;140.1;61.5;;;;;;;23.39;38.82031;987.1606;;;;
2019/11/29 18:43:36;;;;;;;109.9;57.2;;;;;;;23.38;38.8291;987.1811;;;;
2019/11/29 18:46:02;;;;;;;104;57.1;;;;;;;23.27;38.77734;987.2728;;;;
2019/11/29 18:48:32;;;;;;;128.4;59.7;;;;;;;23.26;38.58496;987.2971;;;;
2019/11/29 18:50:52;;;;;;;136.4;60.8;;;;;;;23.29;38.38574;987.3539;;;;
2019/11/29 18:53:17;;;;;;;123;58.9;;;;;;;23.26;38.39453;987.3525;;;;
2019/11/29 18:55:42;;;;;;;120.7;58.1;;;;;;;23.27;38.31152;987.4313;;;;
2019/11/29 18:58:08;;;;;;;119.1;57.9;;;;;;;23.25;38.22461;987.4325;;;;
2019/11/29 19:00:33;;;;;;;116.9;58.2;;;;;;;23.25;38.21387;987.4807;;;;
2019/11/29 19:02:58;;;;;;;116.5;57.4;;;;;;;23.25;38.17188;987.5075;;;;
2019/11/29 19:05:24;;;;;;;107.2;56.6;;;;;;;23.26;38.04492;987.5253;;;;
2019/11/29 19:07:49;;;;;;;113;57.4;;;;;;;23.25;38.03223;987.5835;;;;
2019/11/29 19:10:15;;;;;;;99.9;56.3;;;;;;;23.17;38.08984;987.625;;;;
2019/11/29 19:12:39;;;;;;;100.3;56;;;;;;;23.2;38.15625;987.6584;;;;
2019/11/29 19:15:05;;;;;;;98.9;56.4;;;;;;;23.28;38.05762;987.6973;;;;
2019/11/29 19:17:30;;;;;;;94.9;55.8;;;;;;;23.32;37.89063;987.697;;;;
2019/11/29 19:19:55;;;;;;;95.8;55.8;;;;;;;23.34;37.90332;987.7842;;;;
2019/11/29 19:22:20;;;;;;;97;56.1;;;;;;;23.28;38.18457;987.8184;;;;
2019/11/29 19:24:46;;;;;;;95.9;55.5;;;;;;;23.31;38.22949;987.7899;;;;
2019/11/29 19:27:11;;;;;;;99.9;56;;;;;;;23.33;38.18848;987.8067;;;;
2019/11/29 19:29:37;;;;;;;99.8;56;;;;;;;23.36;38.14844;987.842;;;;
2019/11/29 19:32:02;;;;;;;98.5;56.1;;;;;;;23.34;38.36914;987.8811;;;;
2019/11/29 19:34:28;;;;;;;96;55.7;;;;;;;23.32;38.19727;987.9001;;;;
2019/11/29 19:36:53;;;;;;;98.8;56.3;;;;;;;23.29;38.06836;987.9768;;;;
2019/11/29 19:39:18;;;;;;;96.1;55.5;;;;;;;23.26;38.13965;988.0342;;;;
2019/11/29 19:41:43;;;;;;;98.3;56;;;;;;;23.3;38.02637;988.068;;;;
2019/11/29 20:47:45;;;;;;;68.7;51.5;;;;;;;22.89;40.10059;988.0613;;;;
2019/11/29 20:50:10;;;;;;;66.7;50.9;;;;;;;22.9;39.95313;988.1164;;;;
2019/11/29 20:52:35;;;;;;;67.8;51.3;;;;;;;22.95;39.8623;988.1267;;;;
2019/11/29 20:55:00;;;;;;;69.7;51.7;;;;;;;23.04;39.64746;988.1458;;;;
2019/11/29 20:57:25;;;;;;;66.7;51.4;;;;;;;23.06;39.55469;988.1342;;;;
2019/11/29 21:00:17;;;;;;;61.6;49.6;;;;;;;23.27;38.53418;988.1375;;;;
2019/11/29 21:02:42;;;;;;;60.3;49.9;;;;;;;23.37;38.51074;988.1294;;;;
2019/11/29 21:05:07;;;;;;;57.7;50;;;;;;;23.41;38.11035;988.1321;;;;
2019/11/29 21:07:32;;;;;;;57.6;49.7;;;;;;;23.44;38.10254;988.1742;;;;
2019/11/29 21:09:57;;;;;;;58.4;49.9;;;;;;;23.45;37.84863;988.2445;;;;
2019/11/29 21:12:23;;;;;;;74.6;63.1;;;;;;;22.71;39.39648;988.6744;;;;
2019/11/29 21:14:48;;;;;;;79.5;61.7;;;;;;;22.53;38.96777;988.7418;;;;
2019/11/29 21:17:13;;;;;;;78.5;61.1;;;;;;;22.53;38.75586;988.7579;;;;
2019/11/29 21:19:38;;;;;;;76.1;61.9;;;;;;;22.54;39.14746;988.7439;;;;
2019/11/29 21:23:30;;;;;;;76.9;61.5;;;;;;;22.59;39.76758;988.804;;;;
2019/11/29 21:25:55;;;;;;;77;61;;;;;;;22.61;39.45117;988.87;;;;
2019/11/29 21:28:20;;;;;;;75.9;61.6;;;;;;;22.58;39.36328;988.8674;;;;
2019/11/29 21:30:46;;;;;;;73.6;60.4;;;;;;;22.56;39.3291;988.9056;;;;
2019/11/29 21:33:11;;;;;;;79.1;61.3;;;;;;;22.56;39.44629;988.9409;;;;
2019/11/29 21:35:36;;;;;;;73.1;60.4;;;;;;;22.57;39.35254;988.9991;;;;
2019/11/29 21:38:01;;;;;;;71.4;59.9;;;;;;;22.56;39.53125;989.0652;;;;
2019/11/29 21:40:26;;;;;;;76.1;59.9;;;;;;;22.54;39.45508;989.0723;;;;
2019/11/29 21:42:51;;;;;;;71.5;60;;;;;;;22.55;39.45703;989.1236;;;;
2019/11/29 21:45:16;;;;;;;74.1;59.6;;;;;;;22.54;39.26465;989.195;;;;
2019/11/29 21:47:41;;;;;;;69;59.2;;;;;;;22.52;39.34766;989.1882;;;;
2019/11/29 21:50:06;;;;;;;69.1;59.4;;;;;;;22.52;39.21973;989.1666;;;;
2019/11/29 21:52:31;;;;;;;69.4;59.1;;;;;;;22.5;39.27246;989.1689;;;;
2019/11/29 21:54:58;;;;;;;68.1;59.4;;;;;;;22.5;39.25098;989.1884;;;;
2019/11/29 21:57:21;;;;;;;69.2;59.5;;;;;;;22.5;39.13477;989.274;;;;
2019/11/29 21:59:46;;;;;;;72.9;59.2;;;;;;;22.47;39.16406;989.269;;;;
2019/11/29 22:02:17;;;;;;;70.8;58.8;;;;;;;22.46;39.09961;989.3148;;;;
